Time;durP1;ratioP1;P1;durP2;ratioP2;P2;SDS_P1;SDS_P2;PMS_P1;PMS_P2;Temp;Humidity;BMP_temperature;BMP_pressure;BME280_temperature;BME280_humidity;BME280_pressure;Samples;Min_cycle;Max_cycle;Signal;HPM_P1;HPM_P2
2023/03/30 00:02:21;;;;;;;7.50;5.53;;;10.40;99.90;;;;;;5026059;28;20859;-70
2023/03/30 00:04:48;;;;;;;6.40;4.83;;;10.40;99.90;;;;;;5023954;28;20484;-70
2023/03/30 00:07:15;;;;;;;8.80;4.70;;;10.40;99.90;;;;;;5023288;28;20956;-71
2023/03/30 00:09:43;;;;;;;6.53;4.63;;;10.40;99.90;;;;;;5031018;28;20915;-70
2023/03/30 00:12:10;;;;;;;8.73;4.67;;;10.40;99.90;;;;;;5027786;28;20456;-70
2023/03/30 00:14:41;;;;;;;10.20;4.23;;;10.40;99.90;;;;;;5025908;28;20481;-70
2023/03/30 00:17:08;;;;;;;15.13;5.37;;;10.40;99.90;;;;;;5030310;28;20469;-70
2023/03/30 00:19:36;;;;;;;14.60;5.00;;;10.40;99.90;;;;;;5025093;28;20491;-70
2023/03/30 00:22:03;;;;;;;11.70;5.10;;;10.40;99.90;;;;;;5029541;28;20456;-70
2023/03/30 00:24:30;;;;;;;7.23;4.80;;;10.40;99.90;;;;;;5017621;28;20512;-70
2023/03/30 00:26:58;;;;;;;8.00;4.80;;;10.40;99.90;;;;;;5027435;28;20462;-70
2023/03/30 00:29:24;;;;;;;10.00;5.23;;;10.40;99.90;;;;;;5027545;28;20542;-70
2023/03/30 00:31:51;;;;;;;5.63;4.87;;;10.40;99.90;;;;;;5026562;28;20891;-70
2023/03/30 00:34:18;;;;;;;6.43;4.73;;;10.30;99.90;;;;;;5029409;28;20487;-70
2023/03/30 00:36:45;;;;;;;6.70;4.80;;;10.30;99.90;;;;;;5027001;28;20946;-70
2023/03/30 00:39:12;;;;;;;12.20;5.50;;;10.20;99.90;;;;;;5019128;28;20547;-70
2023/03/30 00:41:39;;;;;;;6.30;5.07;;;10.20;99.90;;;;;;5029603;28;20458;-70
2023/03/30 00:44:29;;;;;;;9.60;5.30;;;10.10;99.90;;;;;;5029824;28;20455;-70
2023/03/30 00:46:58;;;;;;;15.00;4.57;;;10.10;99.90;;;;;;5023252;28;20459;-70
2023/03/30 00:49:25;;;;;;;10.87;5.33;;;10.00;99.90;;;;;;5030339;28;20512;-70
2023/03/30 00:51:52;;;;;;;11.10;5.50;;;10.00;99.90;;;;;;5024073;28;20624;-70
2023/03/30 00:54:20;;;;;;;10.90;5.07;;;10.00;99.90;;;;;;5029512;28;20468;-70
2023/03/30 00:56:47;;;;;;;9.33;5.27;;;9.90;99.90;;;;;;5028398;28;20464;-70
2023/03/30 00:59:14;;;;;;;9.87;4.50;;;9.80;99.90;;;;;;5027919;28;20466;-70
2023/03/30 01:01:41;;;;;;;11.40;5.70;;;9.80;99.90;;;;;;5028481;28;20839;-70
2023/03/30 01:04:09;;;;;;;6.17;4.77;;;9.70;99.90;;;;;;5022285;28;20455;-70
2023/03/30 01:06:38;;;;;;;6.80;4.70;;;9.70;99.90;;;;;;5029074;28;20530;-70
2023/03/30 01:09:05;;;;;;;10.00;5.50;;;9.70;99.90;;;;;;5027905;28;20946;-70
2023/03/30 01:11:32;;;;;;;10.00;5.53;;;9.60;99.90;;;;;;5026048;28;20515;-70
2023/03/30 01:14:02;;;;;;;7.00;5.50;;;9.50;99.90;;;;;;5024336;28;20879;-70
2023/03/30 01:16:39;;;;;;;9.40;5.70;;;9.50;99.90;;;;;;5021900;28;20484;-70
2023/03/30 01:19:33;;;;;;;7.27;5.70;;;9.40;99.90;;;;;;5028463;28;20505;-70
2023/03/30 01:22:15;;;;;;;5.90;4.83;;;9.40;99.90;;;;;;5026414;28;20509;-70
2023/03/30 01:25:20;;;;;;;10.93;5.57;;;9.30;99.90;;;;;;5020688;28;21068;-70
2023/03/30 01:28:20;;;;;;;10.37;5.60;;;9.30;99.90;;;;;;5019466;28;20519;-70
2023/03/30 01:31:16;;;;;;;7.03;5.23;;;9.20;99.90;;;;;;5028607;28;20485;-70
2023/03/30 01:34:17;;;;;;;12.93;5.93;;;9.20;99.90;;;;;;5024995;28;20532;-70
2023/03/30 01:37:08;;;;;;;11.37;5.60;;;9.20;99.90;;;;;;5029120;28;20796;-70
2023/03/30 01:39:43;;;;;;;14.03;5.77;;;9.20;99.90;;;;;;5026496;28;20458;-70
2023/03/30 01:42:18;;;;;;;7.77;5.20;;;9.30;99.90;;;;;;5028194;28;20542;-70
2023/03/30 01:44:53;;;;;;;16.57;5.47;;;9.30;99.90;;;;;;5029082;28;21122;-70
2023/03/30 01:47:24;;;;;;;9.40;5.60;;;9.30;99.90;;;;;;5027252;28;20454;-71
2023/03/30 01:49:58;;;;;;;7.10;5.20;;;9.30;99.90;;;;;;5025943;28;20579;-70
2023/03/30 01:52:29;;;;;;;16.13;5.57;;;9.40;99.90;;;;;;5030479;28;20996;-70
2023/03/30 01:55:03;;;;;;;11.33;5.50;;;9.40;99.90;;;;;;5030659;28;20542;-70
2023/03/30 01:57:34;;;;;;;7.40;5.20;;;9.40;99.90;;;;;;5028921;28;20453;-70
2023/03/30 02:00:11;;;;;;;12.27;6.07;;;9.40;99.90;;;;;;5031285;28;20458;-70
2023/03/30 02:02:38;;;;;;;8.20;5.47;;;9.40;99.90;;;;;;5026058;28;20452;-70
2023/03/30 02:05:07;;;;;;;9.67;5.47;;;9.50;99.90;;;;;;5032498;28;20475;-70
2023/03/30 02:07:36;;;;;;;24.67;5.73;;;9.50;99.90;;;;;;5030273;28;20462;-70
2023/03/30 02:10:08;;;;;;;9.07;5.50;;;9.50;99.90;;;;;;5028039;28;20570;-70
2023/03/30 02:12:36;;;;;;;10.07;5.37;;;9.50;99.90;;;;;;5022900;28;20462;-70
2023/03/30 02:15:09;;;;;;;10.30;5.57;;;9.50;99.90;;;;;;5033762;28;20523;-70
2023/03/30 02:17:37;;;;;;;10.67;6.00;;;9.60;99.90;;;;;;5030933;28;20462;-70
2023/03/30 02:20:07;;;;;;;10.77;7.03;;;9.60;99.90;;;;;;5029562;28;20454;-70
2023/03/30 02:22:34;;;;;;;10.00;6.17;;;9.60;99.90;;;;;;5024876;28;20465;-70
2023/03/30 02:25:01;;;;;;;11.43;5.97;;;9.60;99.90;;;;;;5030578;28;20477;-70
2023/03/30 02:27:30;;;;;;;12.17;6.80;;;9.60;99.90;;;;;;5030349;28;20517;-71
2023/03/30 02:29:57;;;;;;;15.83;6.40;;;9.60;99.90;;;;;;5030837;28;20447;-70
2023/03/30 02:32:26;;;;;;;16.43;7.00;;;9.60;99.90;;;;;;5032892;28;20454;-70
2023/03/30 02:35:27;;;;;;;13.20;7.77;;;9.60;99.90;;;;;;5026706;28;21001;-70
2023/03/30 02:38:20;;;;;;;13.20;7.40;;;9.60;99.90;;;;;;5027748;28;20462;-71
2023/03/30 02:40:57;;;;;;;11.50;6.53;;;9.70;99.90;;;;;;5030598;28;20503;-70
2023/03/30 02:43:35;;;;;;;9.07;6.90;;;9.70;99.90;;;;;;5026378;28;20515;-70
2023/03/30 02:46:16;;;;;;;9.43;4.70;;;9.70;99.90;;;;;;5031090;28;20483;-70
2023/03/30 02:48:56;;;;;;;17.90;4.03;;;9.70;99.90;;;;;;5033164;28;20452;-70
2023/03/30 02:51:38;;;;;;;12.97;3.13;;;10.10;99.90;;;;;;5029948;28;20484;-69
2023/03/30 02:54:15;;;;;;;7.83;2.90;;;10.60;99.90;;;;;;5024339;28;20484;-70
2023/03/30 02:56:47;;;;;;;12.30;3.40;;;11.20;99.90;;;;;;5021613;28;20459;-70
2023/03/30 02:59:19;;;;;;;8.37;2.90;;;11.50;99.90;;;;;;5017630;28;20870;-70
2023/03/30 03:01:50;;;;;;;12.80;3.43;;;11.70;99.90;;;;;;5023778;28;20932;-70
2023/03/30 03:04:20;;;;;;;5.23;2.93;;;11.80;99.90;;;;;;5025062;28;20893;-70
2023/03/30 03:06:51;;;;;;;11.50;3.43;;;11.90;99.90;;;;;;5025787;28;20506;-71
2023/03/30 03:09:18;;;;;;;7.70;3.47;;;11.90;99.90;;;;;;5028919;28;20457;-71
2023/03/30 03:11:45;;;;;;;10.40;3.77;;;12.00;99.90;;;;;;5026202;28;20489;-70
2023/03/30 03:14:12;;;;;;;13.90;3.87;;;12.00;99.90;;;;;;5030048;28;20510;-70
2023/03/30 03:16:40;;;;;;;11.87;3.70;;;11.90;99.90;;;;;;5029330;28;20519;-70
2023/03/30 03:19:08;;;;;;;13.13;3.30;;;11.90;99.90;;;;;;5032612;28;20462;-70
2023/03/30 03:21:35;;;;;;;7.80;3.27;;;12.00;99.90;;;;;;5032455;28;20458;-70
2023/03/30 03:24:02;;;;;;;8.63;3.23;;;12.10;99.90;;;;;;5031478;28;21023;-70
2023/03/30 03:26:29;;;;;;;15.50;4.10;;;12.10;99.90;;;;;;5027310;28;20588;-70
2023/03/30 03:28:56;;;;;;;9.17;4.13;;;12.20;99.90;;;;;;5025072;28;20468;-70
2023/03/30 03:31:23;;;;;;;6.73;3.50;;;12.40;99.90;;;;;;5028449;28;20497;-70
2023/03/30 03:33:51;;;;;;;7.03;3.20;;;12.30;99.90;;;;;;5026062;28;20906;-70
2023/03/30 03:36:18;;;;;;;8.67;3.23;;;12.50;99.90;;;;;;5029431;28;20519;-70
2023/03/30 03:38:45;;;;;;;7.03;3.33;;;12.50;99.90;;;;;;5025990;28;20466;-70
2023/03/30 03:41:11;;;;;;;5.30;3.53;;;12.60;99.90;;;;;;5031224;28;20509;-70
2023/03/30 03:43:38;;;;;;;9.07;3.77;;;12.60;99.90;;;;;;5016885;28;20465;-71
2023/03/30 03:46:05;;;;;;;6.87;3.70;;;12.60;99.90;;;;;;5025553;28;20485;-70
2023/03/30 03:48:31;;;;;;;10.07;3.37;;;12.70;99.90;;;;;;5030196;28;20502;-70
2023/03/30 03:50:59;;;;;;;8.27;3.93;;;12.70;99.90;;;;;;5026470;28;20494;-70
2023/03/30 03:53:27;;;;;;;10.30;3.70;;;12.70;99.90;;;;;;5025440;28;20556;-70
2023/03/30 03:55:54;;;;;;;14.30;5.10;;;12.70;99.90;;;;;;5025343;28;20482;-69
2023/03/30 03:58:21;;;;;;;14.67;5.40;;;12.50;99.90;;;;;;5031944;28;20550;-70
2023/03/30 04:00:49;;;;;;;11.03;4.40;;;12.20;99.90;;;;;;5028851;28;20485;-70
2023/03/30 04:03:16;;;;;;;16.00;5.53;;;11.90;99.90;;;;;;5026305;28;21012;-70
2023/03/30 04:05:43;;;;;;;34.77;6.23;;;11.70;99.90;;;;;;5022623;28;20478;-69
2023/03/30 04:08:11;;;;;;;11.27;4.83;;;11.40;99.90;;;;;;5028390;28;20515;-70
2023/03/30 04:10:38;;;;;;;15.50;5.40;;;11.30;99.90;;;;;;5028284;28;20484;-70
2023/03/30 04:13:05;;;;;;;16.00;5.90;;;11.10;99.90;;;;;;5026114;28;21024;-70
2023/03/30 04:15:32;;;;;;;21.07;5.97;;;11.00;99.90;;;;;;5026222;28;20532;-70
2023/03/30 04:17:58;;;;;;;10.53;4.70;;;10.90;99.90;;;;;;5025508;28;20522;-70
2023/03/30 04:20:26;;;;;;;13.07;6.10;;;10.70;99.90;;;;;;5028528;28;20500;-70
2023/03/30 04:22:53;;;;;;;9.47;4.93;;;10.60;99.90;;;;;;5022456;28;20459;-70
2023/03/30 04:25:24;;;;;;;17.07;5.23;;;10.50;99.90;;;;;;5024973;28;20466;-70
2023/03/30 04:27:51;;;;;;;12.70;5.20;;;10.50;99.90;;;;;;5021111;28;20467;-70
2023/03/30 04:30:18;;;;;;;12.37;5.50;;;10.50;99.90;;;;;;5030765;28;20512;-70
2023/03/30 04:33:01;;;;;;;19.47;5.10;;;10.50;99.90;;;;;;5020491;28;21029;-70
2023/03/30 04:35:29;;;;;;;13.20;5.50;;;10.50;99.90;;;;;;5025594;28;20562;-70
2023/03/30 04:37:56;;;;;;;10.43;4.90;;;10.40;99.90;;;;;;5025171;28;20942;-70
2023/03/30 04:40:25;;;;;;;15.17;5.73;;;10.50;99.90;;;;;;5021636;28;20472;-70
2023/03/30 04:42:51;;;;;;;22.23;5.03;;;10.50;99.90;;;;;;5023984;28;20457;-69
2023/03/30 04:45:19;;;;;;;18.43;5.83;;;10.50;99.90;;;;;;5028443;28;20904;-70
2023/03/30 04:47:46;;;;;;;11.17;5.63;;;10.50;99.90;;;;;;5028275;28;20510;-70
2023/03/30 04:50:13;;;;;;;14.90;5.30;;;10.50;99.90;;;;;;5027770;28;20541;-70
2023/03/30 04:52:39;;;;;;;16.53;5.77;;;10.50;99.90;;;;;;5023399;28;20491;-70
2023/03/30 04:55:07;;;;;;;13.70;5.60;;;10.50;99.90;;;;;;5029652;28;20472;-70
2023/03/30 04:57:35;;;;;;;9.60;6.23;;;10.50;99.90;;;;;;5030452;28;20975;-69
2023/03/30 05:00:05;;;;;;;14.73;5.60;;;10.50;99.90;;;;;;5026123;28;20949;-69
2023/03/30 05:02:32;;;;;;;18.07;6.10;;;10.40;99.90;;;;;;5016178;28;20583;-70
2023/03/30 05:04:59;;;;;;;9.90;5.87;;;10.40;99.90;;;;;;5026888;28;20528;-70
2023/03/30 05:07:25;;;;;;;16.13;6.33;;;10.40;99.90;;;;;;5028743;28;20505;-70
2023/03/30 05:09:52;;;;;;;21.90;7.10;;;10.30;99.90;;;;;;5025119;28;20505;-70
2023/03/30 05:12:19;;;;;;;15.33;6.17;;;10.30;99.90;;;;;;5025900;28;20502;-70
2023/03/30 05:14:47;;;;;;;21.40;7.10;;;10.20;99.90;;;;;;5023060;28;20569;-70
2023/03/30 05:17:13;;;;;;;21.93;6.47;;;10.20;99.90;;;;;;5022218;28;20884;-70
2023/03/30 05:19:40;;;;;;;15.60;6.90;;;10.10;99.90;;;;;;5028896;28;20460;-70
2023/03/30 05:22:07;;;;;;;14.17;5.73;;;10.10;99.90;;;;;;5027526;28;20455;-69
2023/03/30 05:24:33;;;;;;;10.87;6.80;;;10.10;99.90;;;;;;5027381;28;20532;-70
2023/03/30 05:27:01;;;;;;;13.73;6.50;;;10.10;99.90;;;;;;5021937;28;20481;-70
2023/03/30 05:29:27;;;;;;;9.93;6.00;;;10.10;99.90;;;;;;5028297;28;20472;-71
2023/03/30 05:31:55;;;;;;;29.70;7.43;;;10.10;99.90;;;;;;5020784;28;20495;-72
2023/03/30 05:34:22;;;;;;;15.43;5.80;;;10.10;99.90;;;;;;5026920;28;20928;-72
2023/03/30 05:36:49;;;;;;;12.00;6.03;;;10.20;99.90;;;;;;5025404;28;20935;-72
2023/03/30 05:39:15;;;;;;;20.13;6.30;;;10.20;99.90;;;;;;5022814;28;20465;-72
2023/03/30 05:41:42;;;;;;;26.97;6.97;;;10.20;99.90;;;;;;5023010;28;20469;-72
2023/03/30 05:44:09;;;;;;;11.50;6.70;;;10.20;99.90;;;;;;5030223;28;20863;-72
2023/03/30 05:46:35;;;;;;;19.73;7.00;;;10.20;99.90;;;;;;5025057;28;20456;-72
2023/03/30 05:49:03;;;;;;;20.57;5.87;;;10.20;99.90;;;;;;5024124;28;20513;-72
2023/03/30 05:51:30;;;;;;;24.23;6.43;;;10.20;99.90;;;;;;5029180;28;20931;-72
2023/03/30 05:53:57;;;;;;;15.53;5.87;;;10.20;99.90;;;;;;5022438;28;20463;-72
2023/03/30 05:56:24;;;;;;;16.83;6.87;;;10.20;99.90;;;;;;5028863;28;20476;-72
2023/03/30 05:58:51;;;;;;;16.00;7.10;;;10.20;99.90;;;;;;5026677;28;20448;-72
2023/03/30 06:01:20;;;;;;;16.37;6.27;;;10.20;99.90;;;;;;5029733;28;20452;-72
2023/03/30 06:03:47;;;;;;;11.50;5.80;;;10.20;99.90;;;;;;5025583;28;20466;-72
2023/03/30 06:06:15;;;;;;;15.33;6.50;;;10.30;99.90;;;;;;5022320;28;20523;-72
2023/03/30 06:08:42;;;;;;;16.43;6.37;;;10.30;99.90;;;;;;5021547;28;20471;-72
2023/03/30 06:11:10;;;;;;;15.73;6.23;;;10.30;99.90;;;;;;5029071;28;20463;-72
2023/03/30 06:13:36;;;;;;;18.20;6.30;;;10.40;99.90;;;;;;5029227;28;20466;-72
2023/03/30 06:16:03;;;;;;;17.60;5.07;;;10.40;99.90;;;;;;5026347;28;20488;-72
2023/03/30 06:18:30;;;;;;;21.17;4.50;;;10.60;99.90;;;;;;5030324;28;20959;-72
2023/03/30 06:20:57;;;;;;;13.07;4.43;;;10.70;99.90;;;;;;5029014;28;20947;-72
2023/03/30 06:23:25;;;;;;;12.90;5.13;;;11.00;99.90;;;;;;5029898;28;20455;-72
2023/03/30 06:25:52;;;;;;;9.57;4.23;;;11.20;99.90;;;;;;5030699;28;20536;-72
2023/03/30 06:28:20;;;;;;;12.40;4.90;;;11.40;99.90;;;;;;5028293;28;20459;-72
2023/03/30 06:30:47;;;;;;;11.03;3.53;;;11.60;99.90;;;;;;5032650;28;20476;-72
2023/03/30 06:33:15;;;;;;;14.10;4.23;;;11.70;99.90;;;;;;5028221;28;20486;-71
2023/03/30 06:35:45;;;;;;;9.60;3.47;;;11.70;99.90;;;;;;5028442;28;20559;-72
2023/03/30 06:38:13;;;;;;;14.63;4.50;;;11.90;99.90;;;;;;5028723;28;20466;-72
2023/03/30 06:40:41;;;;;;;21.13;4.87;;;11.90;99.90;;;;;;5028384;28;20519;-71
2023/03/30 06:43:08;;;;;;;9.30;3.60;;;12.00;99.90;;;;;;5027587;28;20460;-71
2023/03/30 06:45:35;;;;;;;15.80;4.77;;;12.10;99.90;;;;;;5026846;28;20999;-71
2023/03/30 06:48:01;;;;;;;11.67;3.90;;;12.30;99.90;;;;;;5029102;28;20466;-70
2023/03/30 06:50:28;;;;;;;7.70;3.40;;;12.50;99.90;;;;;;5026615;28;20462;-71
2023/03/30 06:52:55;;;;;;;6.33;3.87;;;12.60;99.90;;;;;;5027170;28;20543;-71
2023/03/30 06:55:22;;;;;;;6.93;3.60;;;12.70;99.90;;;;;;5027494;28;21632;-71
2023/03/30 06:57:49;;;;;;;7.37;3.80;;;12.70;99.90;;;;;;5027877;28;20453;-71
2023/03/30 07:00:17;;;;;;;6.40;4.00;;;12.60;99.90;;;;;;5027677;28;20484;-71
2023/03/30 07:02:44;;;;;;;11.87;3.73;;;12.50;99.90;;;;;;5026662;28;20542;-71
2023/03/30 07:05:11;;;;;;;12.50;4.50;;;12.60;99.90;;;;;;5027103;28;20524;-71
2023/03/30 07:07:39;;;;;;;12.50;4.03;;;12.50;99.90;;;;;;5027467;28;20465;-71
2023/03/30 07:10:09;;;;;;;11.37;5.27;;;12.50;99.90;;;;;;5027123;28;20471;-71
2023/03/30 07:12:35;;;;;;;9.33;4.17;;;12.50;99.90;;;;;;5026349;28;21006;-71
2023/03/30 07:15:05;;;;;;;10.87;4.50;;;12.50;99.90;;;;;;5028899;28;20482;-71
2023/03/30 07:17:33;;;;;;;10.93;4.40;;;12.50;99.90;;;;;;5027937;28;20466;-71
2023/03/30 07:20:00;;;;;;;8.57;4.30;;;12.50;99.90;;;;;;5028217;28;20556;-71
2023/03/30 07:22:27;;;;;;;16.53;4.40;;;12.50;99.90;;;;;;5027232;28;20460;-71
2023/03/30 07:24:54;;;;;;;9.10;3.87;;;12.50;99.90;;;;;;5028497;28;20504;-71
2023/03/30 07:27:23;;;;;;;13.07;4.97;;;12.40;99.90;;;;;;5027254;28;20980;-71
2023/03/30 07:29:49;;;;;;;6.90;4.30;;;12.30;99.90;;;;;;5027304;28;20470;-71
2023/03/30 07:32:18;;;;;;;10.30;4.33;;;12.50;99.90;;;;;;5027616;28;20576;-71
2023/03/30 07:34:46;;;;;;;12.37;5.33;;;12.50;99.90;;;;;;5027680;28;20474;-71
2023/03/30 07:37:13;;;;;;;14.83;5.20;;;12.50;99.90;;;;;;5027233;28;20470;-71
2023/03/30 07:39:39;;;;;;;11.80;4.20;;;12.50;99.90;;;;;;5027320;28;20946;-72
2023/03/30 07:42:06;;;;;;;18.23;4.50;;;12.50;99.90;;;;;;5027888;28;20508;-71
2023/03/30 07:44:33;;;;;;;13.20;5.20;;;12.60;99.90;;;;;;5026304;28;20548;-71
2023/03/30 07:47:00;;;;;;;21.10;5.17;;;12.60;99.90;;;;;;5027119;28;20446;-72
2023/03/30 07:49:28;;;;;;;13.27;5.40;;;12.60;99.90;;;;;;5027021;28;20900;-72
2023/03/30 07:51:55;;;;;;;14.53;4.83;;;12.60;99.90;;;;;;5026228;28;20524;-73
2023/03/30 07:54:21;;;;;;;14.60;5.20;;;12.70;99.90;;;;;;5028030;28;20470;-73
2023/03/30 07:56:51;;;;;;;11.70;5.00;;;12.70;99.90;;;;;;5027273;28;20457;-73
2023/03/30 07:59:18;;;;;;;14.30;4.67;;;12.70;99.90;;;;;;5026931;28;21711;-73
2023/03/30 08:01:45;;;;;;;8.83;5.03;;;12.70;99.90;;;;;;5025898;28;20461;-72
2023/03/30 08:04:12;;;;;;;14.63;4.63;;;12.90;99.90;;;;;;5026851;28;20524;-70
2023/03/30 08:06:40;;;;;;;7.57;4.20;;;13.00;99.90;;;;;;5027173;28;20526;-71
2023/03/30 08:09:07;;;;;;;9.80;4.23;;;13.10;99.90;;;;;;5027627;28;20462;-73
2023/03/30 08:11:34;;;;;;;7.60;4.70;;;13.10;99.90;;;;;;5026804;28;20446;-73
2023/03/30 08:14:01;;;;;;;21.43;4.57;;;13.20;99.90;;;;;;5026995;28;20462;-73
2023/03/30 08:16:28;;;;;;;14.30;4.40;;;13.20;99.90;;;;;;5025093;28;20484;-73
2023/03/30 08:18:55;;;;;;;11.30;4.57;;;13.30;99.90;;;;;;5027417;28;20458;-73
2023/03/30 08:21:24;;;;;;;16.43;4.30;;;13.20;99.90;;;;;;5025914;28;20836;-73
2023/03/30 08:23:52;;;;;;;7.67;4.40;;;13.20;99.90;;;;;;5024342;28;20947;-73
2023/03/30 08:26:19;;;;;;;10.70;4.13;;;13.30;99.90;;;;;;5026584;28;21026;-73
2023/03/30 08:28:45;;;;;;;6.27;4.13;;;13.30;99.90;;;;;;5026607;28;20455;-73
2023/03/30 08:31:12;;;;;;;14.40;4.20;;;13.40;99.90;;;;;;5027148;28;20451;-73
2023/03/30 08:33:39;;;;;;;10.13;4.63;;;13.50;99.90;;;;;;5026513;28;20527;-73
2023/03/30 08:36:06;;;;;;;23.13;4.33;;;13.60;99.90;;;;;;5026639;28;20509;-73
2023/03/30 08:38:33;;;;;;;8.97;3.97;;;13.70;99.90;;;;;;5026801;28;20511;-73
2023/03/30 08:41:01;;;;;;;9.83;4.10;;;13.70;99.90;;;;;;5027654;28;20497;-73
2023/03/30 08:43:47;;;;;;;8.47;4.23;;;13.80;99.90;;;;;;5026940;28;20507;-73
2023/03/30 08:46:16;;;;;;;9.07;4.77;;;13.80;99.90;;;;;;5026925;28;20516;-73
2023/03/30 08:48:43;;;;;;;12.47;4.30;;;13.80;99.90;;;;;;5025756;28;20466;-73
2023/03/30 08:51:20;;;;;;;7.50;3.83;;;13.90;99.90;;;;;;5026277;28;20473;-73
2023/03/30 08:53:50;;;;;;;12.97;4.10;;;14.00;99.90;;;;;;5024719;28;20493;-73
2023/03/30 08:56:21;;;;;;;9.47;4.20;;;14.10;99.90;;;;;;5025152;28;20467;-73
2023/03/30 08:58:55;;;;;;;10.20;4.07;;;14.30;99.90;;;;;;5025043;28;21013;-73
2023/03/30 09:01:26;;;;;;;14.30;4.30;;;14.40;99.90;;;;;;5025298;28;20545;-73
2023/03/30 09:04:07;;;;;;;6.67;3.70;;;14.50;99.90;;;;;;5026102;28;20492;-73
2023/03/30 09:06:44;;;;;;;11.40;4.27;;;14.60;99.90;;;;;;5025582;28;20454;-73
2023/03/30 09:09:15;;;;;;;7.60;3.67;;;14.60;99.90;;;;;;5025675;28;20993;-74
2023/03/30 09:11:44;;;;;;;10.90;3.13;;;14.70;99.90;;;;;;5024645;28;20829;-73
2023/03/30 09:14:18;;;;;;;8.20;3.70;;;14.90;99.90;;;;;;5024313;28;21162;-73
2023/03/30 09:16:50;;;;;;;5.23;3.27;;;14.90;99.90;;;;;;5024143;28;20509;-73
2023/03/30 09:19:24;;;;;;;8.13;3.57;;;15.00;99.90;;;;;;5026144;28;20509;-74
2023/03/30 09:21:54;;;;;;;8.33;3.43;;;15.00;99.90;;;;;;5023792;28;20462;-73
2023/03/30 09:24:26;;;;;;;10.90;4.20;;;14.90;99.90;;;;;;5024923;28;20551;-73
2023/03/30 09:26:59;;;;;;;8.30;3.87;;;15.00;99.90;;;;;;5025352;28;20459;-74
2023/03/30 09:29:30;;;;;;;5.53;3.47;;;15.00;99.90;;;;;;5025829;28;20477;-73
2023/03/30 09:32:04;;;;;;;7.80;3.80;;;14.90;99.90;;;;;;5025399;28;20456;-73
2023/03/30 09:34:36;;;;;;;8.83;3.87;;;14.90;99.90;;;;;;5024498;28;20474;-73
2023/03/30 09:37:07;;;;;;;8.97;4.10;;;14.90;99.90;;;;;;5026590;28;20496;-73
2023/03/30 09:39:36;;;;;;;9.87;3.73;;;14.90;99.90;;;;;;5024522;28;20457;-73
2023/03/30 09:42:17;;;;;;;10.97;3.77;;;14.90;99.90;;;;;;5025396;28;20596;-73
2023/03/30 09:44:47;;;;;;;6.93;3.37;;;14.90;99.90;;;;;;5025345;28;20482;-74
2023/03/30 09:47:23;;;;;;;9.80;3.73;;;14.90;99.90;;;;;;5025578;28;20466;-73
2023/03/30 09:49:56;;;;;;;6.70;3.33;;;14.90;99.90;;;;;;5028701;28;20463;-73
2023/03/30 09:52:25;;;;;;;6.27;3.30;;;14.90;99.90;;;;;;5029023;28;20456;-73
2023/03/30 09:54:52;;;;;;;7.80;3.67;;;15.00;99.90;;;;;;5028023;28;20473;-74
2023/03/30 09:57:28;;;;;;;10.40;3.40;;;14.90;99.90;;;;;;5026377;28;20528;-74
2023/03/30 09:59:56;;;;;;;11.20;3.47;;;14.90;99.90;;;;;;5025060;28;20811;-73
2023/03/30 10:02:24;;;;;;;5.53;3.17;;;14.80;99.90;;;;;;5027976;28;20450;-73
2023/03/30 10:05:02;;;;;;;11.93;3.60;;;14.80;99.90;;;;;;5028563;28;20499;-74
2023/03/30 10:07:32;;;;;;;5.33;3.80;;;14.80;99.90;;;;;;5028419;28;20450;-73
2023/03/30 10:10:01;;;;;;;10.70;3.70;;;14.80;99.90;;;;;;5028813;28;20455;-73
2023/03/30 10:12:30;;;;;;;7.17;3.93;;;15.00;99.90;;;;;;5029432;28;20492;-73
2023/03/30 10:15:01;;;;;;;7.17;3.43;;;15.10;99.90;;;;;;5028675;28;20524;-73
2023/03/30 10:17:28;;;;;;;8.00;3.10;;;15.20;99.90;;;;;;5027468;28;20451;-73
2023/03/30 10:20:17;;;;;;;9.70;3.83;;;15.20;99.90;;;;;;5029193;28;21060;-73
2023/03/30 10:22:52;;;;;;;9.77;3.50;;;15.20;99.90;;;;;;5028403;28;20495;-73
2023/03/30 10:25:22;;;;;;;7.10;3.23;;;15.20;99.90;;;;;;5029480;28;20477;-73
2023/03/30 10:27:54;;;;;;;8.80;3.30;;;15.30;99.90;;;;;;5029569;28;20474;-73
2023/03/30 10:30:23;;;;;;;9.30;3.43;;;15.30;99.90;;;;;;5029123;28;20458;-73
2023/03/30 10:32:51;;;;;;;6.70;3.60;;;15.50;99.90;;;;;;5027576;28;21500;-74
2023/03/30 10:35:21;;;;;;;12.03;3.80;;;15.50;99.90;;;;;;5027929;28;20524;-73
2023/03/30 10:37:50;;;;;;;12.97;3.83;;;15.40;99.90;;;;;;5027208;28;20450;-74
2023/03/30 10:40:20;;;;;;;8.33;3.30;;;15.40;99.90;;;;;;5026671;28;20509;-74
2023/03/30 10:42:54;;;;;;;7.03;3.40;;;15.40;99.90;;;;;;5018956;28;20454;-73
2023/03/30 10:45:26;;;;;;;6.17;3.43;;;15.50;99.90;;;;;;5019412;28;20481;-73
2023/03/30 10:48:06;;;;;;;14.00;4.13;;;15.80;99.90;;;;;;5029495;28;20504;-74
2023/03/30 10:50:40;;;;;;;9.27;3.60;;;15.90;99.90;;;;;;5024610;28;20853;-73
2023/03/30 10:53:25;;;;;;;6.90;3.27;;;16.00;99.90;;;;;;5017003;28;20566;-74
2023/03/30 10:55:58;;;;;;;4.17;2.70;;;16.10;99.90;;;;;;5030747;28;20513;-73
2023/03/30 10:58:37;;;;;;;8.47;2.67;;;16.30;99.90;;;;;;5028896;28;20451;-73
2023/03/30 11:01:11;;;;;;;4.37;2.43;;;16.60;99.90;;;;;;5026458;28;20449;-74
2023/03/30 11:03:40;;;;;;;2.47;1.97;;;16.90;99.90;;;;;;5032838;28;20446;-74
2023/03/30 11:06:12;;;;;;;5.70;2.60;;;17.10;99.90;;;;;;5033550;28;20485;-74
2023/03/30 11:08:43;;;;;;;6.63;2.17;;;17.10;99.90;;;;;;5019828;28;20873;-74
2023/03/30 11:11:16;;;;;;;5.40;1.93;;;17.20;99.90;;;;;;5033329;28;20450;-73
2023/03/30 11:13:49;;;;;;;3.67;1.87;;;17.60;99.90;;;;;;5028455;28;20519;-74
2023/03/30 11:16:20;;;;;;;7.63;2.30;;;17.60;99.90;;;;;;5028063;28;20471;-74
2023/03/30 11:18:54;;;;;;;4.87;2.43;;;17.70;99.90;;;;;;5033177;28;20461;-73
2023/03/30 11:21:28;;;;;;;5.83;1.90;;;17.90;99.90;;;;;;5033062;28;20799;-74
2023/03/30 11:23:56;;;;;;;4.40;2.10;;;18.10;99.90;;;;;;5024610;28;20450;-74
2023/03/30 11:26:29;;;;;;;4.47;2.00;;;18.30;99.90;;;;;;5032786;28;20445;-74
2023/03/30 11:29:05;;;;;;;4.07;1.70;;;18.50;99.90;;;;;;5032776;28;20475;-74
2023/03/30 11:31:44;;;;;;;3.40;1.80;;;18.80;99.90;;;;;;5033148;28;20428;-72
2023/03/30 11:34:19;;;;;;;4.07;2.40;;;18.70;99.90;;;;;;5032572;28;20891;-73
2023/03/30 11:36:52;;;;;;;4.70;2.10;;;18.80;99.90;;;;;;5032759;28;20468;-72
2023/03/30 11:39:26;;;;;;;6.53;1.80;;;19.10;99.90;;;;;;5033392;28;20508;-72
2023/03/30 11:41:57;;;;;;;4.57;1.93;;;19.30;99.90;;;;;;5032447;28;20839;-73
2023/03/30 11:44:26;;;;;;;3.00;1.60;;;19.40;99.90;;;;;;5032653;28;20524;-72
2023/03/30 11:46:59;;;;;;;2.77;1.80;;;19.50;99.90;;;;;;5025176;28;20465;-72
2023/03/30 11:49:37;;;;;;;3.63;1.50;;;19.30;99.90;;;;;;5024466;28;20930;-72
2023/03/30 11:52:17;;;;;;;7.17;3.10;;;19.20;99.90;;;;;;5021326;28;20429;-72
2023/03/30 11:55:08;;;;;;;8.63;2.07;;;19.10;99.90;;;;;;5029907;28;20821;-72
2023/03/30 11:57:44;;;;;;;3.73;1.47;;;18.90;99.90;;;;;;5032458;28;20842;-73
2023/03/30 12:00:32;;;;;;;1.27;1.10;;;17.80;99.90;;;;;;5023042;28;20453;-72
2023/03/30 12:03:13;;;;;;;3.03;1.20;;;16.60;99.90;;;;;;5031886;28;20420;-72
2023/03/30 12:05:44;;;;;;;1.77;1.20;;;15.70;99.90;;;;;;5031961;28;21056;-72
2023/03/30 12:08:33;;;;;;;3.20;1.60;;;15.10;99.90;;;;;;5026932;28;20942;-72
2023/03/30 12:11:06;;;;;;;2.17;1.47;;;14.60;99.90;;;;;;5015476;28;20454;-73
2023/03/30 12:13:33;;;;;;;7.50;1.00;;;14.30;99.90;;;;;;5031989;28;20870;-72
2023/03/30 12:16:04;;;;;;;1.83;1.30;;;14.00;99.90;;;;;;5015404;28;20796;-72
2023/03/30 12:18:37;;;;;;;1.83;1.20;;;13.80;99.90;;;;;;5023830;28;20955;-72
2023/03/30 12:21:18;;;;;;;1.13;1.03;;;13.70;99.90;;;;;;5020745;28;20559;-72
2023/03/30 12:23:49;;;;;;;2.63;1.20;;;13.50;99.90;;;;;;5025021;28;20958;-72
2023/03/30 12:26:26;;;;;;;3.83;1.30;;;13.30;99.90;;;;;;5031865;28;20478;-72
2023/03/30 12:28:58;;;;;;;2.30;1.20;;;13.30;99.90;;;;;;5031552;28;20536;-72
2023/03/30 12:32:02;;;;;;;1.20;1.10;;;13.40;99.90;;;;;;5031942;28;20532;-72
2023/03/30 12:34:33;;;;;;;1.53;1.10;;;13.60;99.90;;;;;;5031233;28;20525;-72
2023/03/30 12:37:08;;;;;;;2.53;1.10;;;13.80;99.90;;;;;;5031868;28;20449;-72
2023/03/30 12:39:43;;;;;;;2.27;1.10;;;14.10;99.90;;;;;;5031892;28;20453;-72
2023/03/30 12:42:25;;;;;;;1.20;1.10;;;14.20;99.90;;;;;;5031969;28;20453;-72
2023/03/30 12:45:04;;;;;;;1.83;1.20;;;14.30;99.90;;;;;;5021052;28;20503;-72
2023/03/30 12:47:58;;;;;;;2.13;1.20;;;14.30;99.90;;;;;;5027400;28;20450;-72
2023/03/30 12:50:43;;;;;;;3.03;1.30;;;14.30;99.90;;;;;;5023130;28;20451;-72
2023/03/30 12:53:52;;;;;;;3.00;1.20;;;14.10;99.90;;;;;;5026081;28;20507;-72
2023/03/30 12:56:27;;;;;;;3.03;1.10;;;14.00;99.90;;;;;;5005776;28;20462;-72
2023/03/30 12:59:22;;;;;;;2.00;1.53;;;13.90;99.90;;;;;;5029427;28;20447;-72
2023/03/30 13:02:03;;;;;;;3.10;1.23;;;13.90;99.90;;;;;;5031110;28;20454;-72
2023/03/30 13:04:37;;;;;;;1.30;1.20;;;14.10;99.90;;;;;;5031463;28;20470;-72